Mount Forest, Canada
Current Conditions -  °F | °C
As of 12:00 AM on Tuesday 21 Oct 2014 (Local Time) from CYKF Reporting Station
Haze Haze  
Wind Chill: 50°   Ceiling: 800
Heat Index: 50°   Visibility: 3mi
Dew Point: 48°   Wind: 8mph
Humidity: 94%   Direction: 300°WNW
Pressure: 29.8"   Gusts: NA
Location:  43.98°N, 80.73°W
Report Text: CYKF 210400Z AUTO 30007KT 3SM BR OVC008 10/09 A2980 RMK SLP094
Loading
Personal Weather Stations






























Interactive Weather Map
Tropical Storm Tracking
New forecast layout! Learn more

10-Day Weather Forecast

Advertisements
Track Severe Weather on mobile